Fontana Observed Data For Previous 48 Hours

Caption
Day and Hour Reservoir Elevation (behind dam)* Tailwater Elevation (below dam)* Average Hourly Discharge*
1/14/2019 2 AM EST 1,660.71 1,279.18 10,266
1/14/2019 3 AM EST 1,660.67 1,279.11 10,270
1/14/2019 4 AM EST 1,660.64 1,279.20 10,266
1/14/2019 5 AM EST 1,660.62 1,279.12 10,269
1/14/2019 6 AM EST 1,660.58 1,279.18 10,270
1/14/2019 7 AM EST 1,660.55 1,279.10 10,267
1/14/2019 8 AM EST 1,660.52 1,279.15 10,262
1/14/2019 9 AM EST 1,660.49 1,279.22 10,258
1/14/2019 10 AM EST 1,660.45 1,279.12 10,252
1/14/2019 11 AM EST 1,660.42 1,279.17 10,261
1/14/2019 12 PM EST 1,660.38 1,279.18 10,256
1/14/2019 1 PM EST 1,660.34 1,279.21 10,260
1/14/2019 2 PM EST 1,660.30 1,279.14 10,253
1/14/2019 3 PM EST 1,660.27 1,279.13 10,250
1/14/2019 4 PM EST 1,660.22 1,279.20 10,255
1/14/2019 5 PM EST 1,660.20 1,279.11 10,252
1/14/2019 6 PM EST 1,660.17 1,279.15 10,253
1/14/2019 7 PM EST 1,660.13 1,279.09 10,210
1/14/2019 8 PM EST 1,660.10 1,279.16 10,201
1/14/2019 9 PM EST 1,660.06 1,279.15 10,242
1/14/2019 10 PM EST 1,660.03 1,279.11 10,243
1/14/2019 11 PM EST 1,659.99 1,279.14 10,245
1/15/2019 12 AM EST 1,659.95 1,279.18 10,241
1/15/2019 1 AM EST 1,659.92 1,279.19 10,232
1/15/2019 2 AM EST 1,659.88 1,279.22 10,232
1/15/2019 3 AM EST 1,659.84 1,279.16 10,232
1/15/2019 4 AM EST 1,659.80 1,279.14 10,236
1/15/2019 5 AM EST 1,659.76 1,279.13 10,235
1/15/2019 6 AM EST 1,659.73 1,279.14 10,222
1/15/2019 7 AM EST 1,659.69 1,279.19 10,229
1/15/2019 8 AM EST 1,659.66 1,279.17 10,227
1/15/2019 9 AM EST 1,659.61 1,279.22 10,229
1/15/2019 10 AM EST 1,659.60 1,277.59 6,359
1/15/2019 11 AM EST 1,659.59 1,277.53 3,603
1/15/2019 12 PM EST 1,659.58 1,277.51 3,597
1/15/2019 1 PM EST 1,659.57 1,277.53 3,602
1/15/2019 2 PM EST 1,659.56 1,277.89 3,603
1/15/2019 3 PM EST 1,659.56 1,277.82 7,563
1/15/2019 4 PM EST 1,659.55 1,277.77 10,202
1/15/2019 5 PM EST 1,659.54 1,277.78 10,203
1/15/2019 6 PM EST 1,659.52 1,277.83 10,201
1/15/2019 7 PM EST 1,659.50 1,277.78 10,202
1/15/2019 8 PM EST 1,659.48 1,277.77 10,201
1/15/2019 9 PM EST 1,659.44 1,277.82 10,206
1/15/2019 10 PM EST 1,659.40 1,277.78 10,210
1/15/2019 11 PM EST 1,659.35 1,277.80 10,199
1/16/2019 12 AM EST 1,659.32 1,277.79 10,197
1/16/2019 1 AM EST 1,659.30 1,277.75 10,200
1/16/2019 2 AM EST 1,659.28 1,277.81 10,200
1/16/2019 3 AM EST 1,659.24 1,277.79 10,193
1/16/2019 4 AM EST 1,659.20 1,277.79 10,198
1/16/2019 5 AM EST 1,659.12 1,277.78 10,193
1/16/2019 6 AM EST 1,659.10 1,277.82 10,189
1/16/2019 7 AM EST 1,659.08 1,277.81 10,193
1/16/2019 8 AM EST 1,658.85 1,277.85 10,185
1/16/2019 9 AM EST 1,658.62 1,277.85 10,174
1/16/2019 10 AM EST 1,658.60 1,277.87 10,174
1/16/2019 11 AM EST 1,658.59 1,277.86 10,166
1/16/2019 12 PM EST 1,658.58 1,277.83 10,163
1/16/2019 1 PM EST 1,658.55 1,277.81 10,168
1/16/2019 2 PM EST - 999.00 1,277.85 10,129
1/16/2019 3 PM EST 1,657.14 1,277.85 10,017
1/16/2019 4 PM EST 1,657.14 1,277.89 10,046
1/16/2019 5 PM EST 1,657.09 1,277.85 10,095

Elevations are in feet above sea level. Discharges are in cubic feet per second and are reported at the end of the hour.